sensor_id;sensor_type;location;lat;lon;timestamp;P1;durP1;ratioP1;P2;durP2;ratioP2
72422;SDS011;60413;55.658;37.498;2022-08-18T00:02:17;9.55;;;4.97;;
72422;SDS011;60413;55.658;37.498;2022-08-18T00:04:54;11.73;;;5.82;;
72422;SDS011;60413;55.658;37.498;2022-08-18T00:07:28;18.33;;;5.55;;
72422;SDS011;60413;55.658;37.498;2022-08-18T00:09:56;11.70;;;5.65;;
72422;SDS011;60413;55.658;37.498;2022-08-18T00:14:57;15.60;;;6.32;;
72422;SDS011;60413;55.658;37.498;2022-08-18T00:17:33;15.98;;;5.90;;
72422;SDS011;60413;55.658;37.498;2022-08-18T00:19:59;15.43;;;6.20;;
72422;SDS011;60413;55.658;37.498;2022-08-18T00:22:28;14.90;;;6.28;;
72422;SDS011;60413;55.658;37.498;2022-08-18T00:24:55;10.45;;;6.18;;
72422;SDS011;60413;55.658;37.498;2022-08-18T00:27:23;13.30;;;6.25;;
72422;SDS011;60413;55.658;37.498;2022-08-18T00:29:55;16.52;;;6.00;;
72422;SDS011;60413;55.658;37.498;2022-08-18T00:32:25;14.73;;;6.90;;
72422;SDS011;60413;55.658;37.498;2022-08-18T00:35:07;14.20;;;6.03;;
72422;SDS011;60413;55.658;37.498;2022-08-18T00:37:38;10.70;;;5.88;;
72422;SDS011;60413;55.658;37.498;2022-08-18T00:40:17;15.05;;;6.60;;
72422;SDS011;60413;55.658;37.498;2022-08-18T00:42:47;14.07;;;6.35;;
72422;SDS011;60413;55.658;37.498;2022-08-18T00:45:33;11.47;;;6.10;;
72422;SDS011;60413;55.658;37.498;2022-08-18T00:48:03;16.73;;;6.57;;
72422;SDS011;60413;55.658;37.498;2022-08-18T00:53:16;15.05;;;6.20;;
72422;SDS011;60413;55.658;37.498;2022-08-18T00:56:02;15.10;;;6.40;;
72422;SDS011;60413;55.658;37.498;2022-08-18T00:58:33;16.67;;;6.78;;
72422;SDS011;60413;55.658;37.498;2022-08-18T01:01:05;14.40;;;6.32;;
72422;SDS011;60413;55.658;37.498;2022-08-18T01:03:45;14.43;;;6.20;;
72422;SDS011;60413;55.658;37.498;2022-08-18T01:06:38;11.98;;;6.00;;
72422;SDS011;60413;55.658;37.498;2022-08-18T01:09:11;13.90;;;6.32;;
72422;SDS011;60413;55.658;37.498;2022-08-18T01:11:37;18.63;;;6.00;;
72422;SDS011;60413;55.658;37.498;2022-08-18T01:14:07;11.80;;;5.95;;
72422;SDS011;60413;55.658;37.498;2022-08-18T01:16:34;14.98;;;6.07;;
72422;SDS011;60413;55.658;37.498;2022-08-18T01:19:19;22.55;;;6.32;;
72422;SDS011;60413;55.658;37.498;2022-08-18T01:22:07;13.55;;;5.95;;
72422;SDS011;60413;55.658;37.498;2022-08-18T01:24:40;15.88;;;6.32;;
72422;SDS011;60413;55.658;37.498;2022-08-18T01:27:24;9.20;;;5.50;;
72422;SDS011;60413;55.658;37.498;2022-08-18T01:29:56;10.57;;;5.47;;
72422;SDS011;60413;55.658;37.498;2022-08-18T01:32:26;12.13;;;5.82;;
72422;SDS011;60413;55.658;37.498;2022-08-18T01:34:53;13.60;;;6.57;;
72422;SDS011;60413;55.658;37.498;2022-08-18T01:37:21;15.95;;;5.90;;
72422;SDS011;60413;55.658;37.498;2022-08-18T01:39:53;15.43;;;6.50;;
72422;SDS011;60413;55.658;37.498;2022-08-18T01:42:21;17.33;;;6.40;;
72422;SDS011;60413;55.658;37.498;2022-08-18T01:44:47;18.20;;;5.53;;
72422;SDS011;60413;55.658;37.498;2022-08-18T01:47:18;17.13;;;6.80;;
72422;SDS011;60413;55.658;37.498;2022-08-18T01:49:56;13.90;;;5.82;;
72422;SDS011;60413;55.658;37.498;2022-08-18T01:52:25;16.52;;;6.07;;
72422;SDS011;60413;55.658;37.498;2022-08-18T01:54:55;12.40;;;6.40;;
72422;SDS011;60413;55.658;37.498;2022-08-18T01:57:29;14.30;;;6.53;;
72422;SDS011;60413;55.658;37.498;2022-08-18T01:59:55;15.73;;;6.28;;
72422;SDS011;60413;55.658;37.498;2022-08-18T02:02:35;11.82;;;6.45;;
72422;SDS011;60413;55.658;37.498;2022-08-18T02:05:04;13.02;;;6.00;;
72422;SDS011;60413;55.658;37.498;2022-08-18T02:07:40;20.08;;;7.05;;
72422;SDS011;60413;55.658;37.498;2022-08-18T02:10:07;16.77;;;7.20;;
72422;SDS011;60413;55.658;37.498;2022-08-18T02:12:35;14.38;;;6.28;;
72422;SDS011;60413;55.658;37.498;2022-08-18T02:15:06;16.55;;;6.60;;
72422;SDS011;60413;55.658;37.498;2022-08-18T02:17:38;12.27;;;7.10;;
72422;SDS011;60413;55.658;37.498;2022-08-18T02:20:08;13.80;;;6.55;;
72422;SDS011;60413;55.658;37.498;2022-08-18T02:22:37;18.15;;;7.63;;
72422;SDS011;60413;55.658;37.498;2022-08-18T02:25:06;17.33;;;8.13;;
72422;SDS011;60413;55.658;37.498;2022-08-18T02:27:33;18.92;;;8.35;;
72422;SDS011;60413;55.658;37.498;2022-08-18T02:30:00;15.75;;;7.53;;
72422;SDS011;60413;55.658;37.498;2022-08-18T02:32:31;22.55;;;8.52;;
72422;SDS011;60413;55.658;37.498;2022-08-18T02:34:57;17.48;;;8.60;;
72422;SDS011;60413;55.658;37.498;2022-08-18T02:37:26;17.77;;;7.78;;
72422;SDS011;60413;55.658;37.498;2022-08-18T02:39:52;17.65;;;8.23;;
72422;SDS011;60413;55.658;37.498;2022-08-18T02:42:19;13.77;;;7.75;;
72422;SDS011;60413;55.658;37.498;2022-08-18T02:44:50;24.67;;;9.32;;
72422;SDS011;60413;55.658;37.498;2022-08-18T02:47:20;19.27;;;8.48;;
72422;SDS011;60413;55.658;37.498;2022-08-18T02:49:46;17.98;;;8.30;;
72422;SDS011;60413;55.658;37.498;2022-08-18T02:52:13;13.98;;;8.55;;
72422;SDS011;60413;55.658;37.498;2022-08-18T02:54:42;18.52;;;8.80;;
72422;SDS011;60413;55.658;37.498;2022-08-18T02:57:11;22.98;;;8.43;;
72422;SDS011;60413;55.658;37.498;2022-08-18T02:59:40;20.85;;;8.73;;
72422;SDS011;60413;55.658;37.498;2022-08-18T03:02:11;23.65;;;8.57;;
72422;SDS011;60413;55.658;37.498;2022-08-18T03:04:38;20.25;;;9.05;;
72422;SDS011;60413;55.658;37.498;2022-08-18T03:07:05;19.88;;;8.60;;
72422;SDS011;60413;55.658;37.498;2022-08-18T03:09:35;18.77;;;8.77;;
72422;SDS011;60413;55.658;37.498;2022-08-18T03:12:01;18.67;;;8.65;;
72422;SDS011;60413;55.658;37.498;2022-08-18T03:14:28;21.92;;;10.00;;
72422;SDS011;60413;55.658;37.498;2022-08-18T03:16:55;20.02;;;10.75;;
72422;SDS011;60413;55.658;37.498;2022-08-18T03:19:25;21.05;;;10.48;;
72422;SDS011;60413;55.658;37.498;2022-08-18T03:21:53;23.08;;;11.77;;
72422;SDS011;60413;55.658;37.498;2022-08-18T03:24:20;23.05;;;12.27;;
72422;SDS011;60413;55.658;37.498;2022-08-18T03:26:47;22.70;;;12.27;;
72422;SDS011;60413;55.658;37.498;2022-08-18T03:29:13;22.13;;;13.57;;
72422;SDS011;60413;55.658;37.498;2022-08-18T03:31:42;31.20;;;16.65;;
72422;SDS011;60413;55.658;37.498;2022-08-18T03:34:10;30.85;;;17.05;;
72422;SDS011;60413;55.658;37.498;2022-08-18T03:36:37;30.25;;;15.60;;
72422;SDS011;60413;55.658;37.498;2022-08-18T03:39:08;34.13;;;17.48;;
72422;SDS011;60413;55.658;37.498;2022-08-18T03:41:36;35.85;;;19.75;;
72422;SDS011;60413;55.658;37.498;2022-08-18T03:44:04;38.67;;;22.02;;
72422;SDS011;60413;55.658;37.498;2022-08-18T03:46:31;39.78;;;22.08;;
72422;SDS011;60413;55.658;37.498;2022-08-18T03:48:58;41.50;;;24.65;;
72422;SDS011;60413;55.658;37.498;2022-08-18T03:51:27;51.85;;;26.92;;
72422;SDS011;60413;55.658;37.498;2022-08-18T03:53:57;46.58;;;26.45;;
72422;SDS011;60413;55.658;37.498;2022-08-18T03:56:29;55.15;;;30.95;;
72422;SDS011;60413;55.658;37.498;2022-08-18T03:58:59;63.75;;;36.75;;
72422;SDS011;60413;55.658;37.498;2022-08-18T04:01:31;71.68;;;41.28;;
72422;SDS011;60413;55.658;37.498;2022-08-18T04:04:03;76.80;;;45.75;;
72422;SDS011;60413;55.658;37.498;2022-08-18T04:06:35;78.07;;;45.85;;
72422;SDS011;60413;55.658;37.498;2022-08-18T04:09:04;77.43;;;48.58;;
72422;SDS011;60413;55.658;37.498;2022-08-18T04:11:34;85.70;;;49.88;;
72422;SDS011;60413;55.658;37.498;2022-08-18T04:14:05;113.15;;;60.55;;
72422;SDS011;60413;55.658;37.498;2022-08-18T04:16:34;107.22;;;63.85;;
72422;SDS011;60413;55.658;37.498;2022-08-18T04:19:02;127.13;;;77.65;;
72422;SDS011;60413;55.658;37.498;2022-08-18T04:21:30;122.97;;;75.97;;
72422;SDS011;60413;55.658;37.498;2022-08-18T04:23:58;130.23;;;84.72;;
72422;SDS011;60413;55.658;37.498;2022-08-18T04:26:36;149.32;;;94.00;;
72422;SDS011;60413;55.658;37.498;2022-08-18T04:29:08;156.75;;;102.18;;
72422;SDS011;60413;55.658;37.498;2022-08-18T04:31:38;165.20;;;109.57;;
72422;SDS011;60413;55.658;37.498;2022-08-18T04:34:04;157.95;;;105.15;;
72422;SDS011;60413;55.658;37.498;2022-08-18T04:36:32;154.70;;;102.55;;
72422;SDS011;60413;55.658;37.498;2022-08-18T04:39:04;149.57;;;99.10;;
72422;SDS011;60413;55.658;37.498;2022-08-18T04:41:34;141.23;;;98.15;;
72422;SDS011;60413;55.658;37.498;2022-08-18T04:44:05;143.35;;;94.60;;
72422;SDS011;60413;55.658;37.498;2022-08-18T04:46:40;133.90;;;89.40;;
72422;SDS011;60413;55.658;37.498;2022-08-18T04:49:15;135.93;;;89.40;;
72422;SDS011;60413;55.658;37.498;2022-08-18T04:51:47;129.13;;;84.85;;
72422;SDS011;60413;55.658;37.498;2022-08-18T04:54:36;115.00;;;72.97;;
72422;SDS011;60413;55.658;37.498;2022-08-18T04:57:06;116.55;;;75.53;;
72422;SDS011;60413;55.658;37.498;2022-08-18T04:59:37;113.25;;;72.60;;
72422;SDS011;60413;55.658;37.498;2022-08-18T05:02:04;109.55;;;73.07;;
72422;SDS011;60413;55.658;37.498;2022-08-18T05:04:43;115.13;;;75.15;;
72422;SDS011;60413;55.658;37.498;2022-08-18T05:07:18;113.78;;;73.70;;
72422;SDS011;60413;55.658;37.498;2022-08-18T05:09:47;109.80;;;75.10;;
72422;SDS011;60413;55.658;37.498;2022-08-18T05:12:16;112.35;;;75.65;;
72422;SDS011;60413;55.658;37.498;2022-08-18T05:14:47;117.18;;;79.05;;
72422;SDS011;60413;55.658;37.498;2022-08-18T05:17:16;119.53;;;82.25;;
72422;SDS011;60413;55.658;37.498;2022-08-18T05:19:42;119.07;;;80.45;;
72422;SDS011;60413;55.658;37.498;2022-08-18T05:22:09;134.48;;;92.80;;
72422;SDS011;60413;55.658;37.498;2022-08-18T05:24:38;131.57;;;88.60;;
72422;SDS011;60413;55.658;37.498;2022-08-18T05:27:05;143.18;;;94.95;;
72422;SDS011;60413;55.658;37.498;2022-08-18T05:29:34;135.13;;;90.60;;
72422;SDS011;60413;55.658;37.498;2022-08-18T05:32:06;133.95;;;92.65;;
72422;SDS011;60413;55.658;37.498;2022-08-18T05:34:33;135.75;;;93.45;;
72422;SDS011;60413;55.658;37.498;2022-08-18T05:37:06;126.72;;;89.43;;
72422;SDS011;60413;55.658;37.498;2022-08-18T05:39:59;133.52;;;91.28;;
72422;SDS011;60413;55.658;37.498;2022-08-18T05:42:29;130.52;;;90.75;;
72422;SDS011;60413;55.658;37.498;2022-08-18T05:45:12;127.55;;;90.38;;
72422;SDS011;60413;55.658;37.498;2022-08-18T05:47:44;125.00;;;87.88;;
72422;SDS011;60413;55.658;37.498;2022-08-18T05:50:12;127.95;;;84.97;;
72422;SDS011;60413;55.658;37.498;2022-08-18T05:52:50;125.05;;;86.93;;
72422;SDS011;60413;55.658;37.498;2022-08-18T05:58:37;123.07;;;85.65;;
72422;SDS011;60413;55.658;37.498;2022-08-18T06:01:13;123.35;;;85.35;;
72422;SDS011;60413;55.658;37.498;2022-08-18T06:09:52;113.00;;;72.90;;
72422;SDS011;60413;55.658;37.498;2022-08-18T06:15:17;98.00;;;68.85;;
72422;SDS011;60413;55.658;37.498;2022-08-18T06:21:16;101.05;;;63.85;;
72422;SDS011;60413;55.658;37.498;2022-08-18T06:24:09;93.63;;;62.75;;
72422;SDS011;60413;55.658;37.498;2022-08-18T06:30:13;96.90;;;61.15;;
72422;SDS011;60413;55.658;37.498;2022-08-18T06:35:45;81.10;;;56.30;;
72422;SDS011;60413;55.658;37.498;2022-08-18T06:41:16;70.82;;;44.17;;
72422;SDS011;60413;55.658;37.498;2022-08-18T06:44:07;67.05;;;45.75;;
72422;SDS011;60413;55.658;37.498;2022-08-18T06:46:54;75.72;;;46.80;;
72422;SDS011;60413;55.658;37.498;2022-08-18T06:52:57;70.70;;;47.63;;
72422;SDS011;60413;55.658;37.498;2022-08-18T06:55:39;70.00;;;45.25;;
72422;SDS011;60413;55.658;37.498;2022-08-18T07:00:44;68.30;;;43.72;;
72422;SDS011;60413;55.658;37.498;2022-08-18T07:06:03;64.28;;;40.53;;
72422;SDS011;60413;55.658;37.498;2022-08-18T07:08:40;61.67;;;38.13;;
72422;SDS011;60413;55.658;37.498;2022-08-18T07:14:43;51.75;;;33.85;;
72422;SDS011;60413;55.658;37.498;2022-08-18T07:16:48;44.55;;;25.77;;
72422;SDS011;60413;55.658;37.498;2022-08-18T07:19:27;29.80;;;19.73;;
72422;SDS011;60413;55.658;37.498;2022-08-18T07:24:51;42.03;;;23.85;;
72422;SDS011;60413;55.658;37.498;2022-08-18T07:27:38;37.72;;;19.50;;
72422;SDS011;60413;55.658;37.498;2022-08-18T07:32:59;28.83;;;13.23;;
72422;SDS011;60413;55.658;37.498;2022-08-18T07:35:48;25.05;;;12.60;;
72422;SDS011;60413;55.658;37.498;2022-08-18T07:38:29;23.52;;;11.95;;
72422;SDS011;60413;55.658;37.498;2022-08-18T07:47:37;20.52;;;10.70;;
72422;SDS011;60413;55.658;37.498;2022-08-18T07:50:10;21.83;;;10.77;;
72422;SDS011;60413;55.658;37.498;2022-08-18T07:52:57;21.95;;;9.65;;
72422;SDS011;60413;55.658;37.498;2022-08-18T07:55:46;14.50;;;8.77;;
72422;SDS011;60413;55.658;37.498;2022-08-18T08:03:52;13.23;;;6.85;;
72422;SDS011;60413;55.658;37.498;2022-08-18T08:14:30;12.85;;;5.22;;
72422;SDS011;60413;55.658;37.498;2022-08-18T08:17:06;11.88;;;4.85;;
72422;SDS011;60413;55.658;37.498;2022-08-18T08:34:49;5.03;;;2.85;;
72422;SDS011;60413;55.658;37.498;2022-08-18T08:37:23;10.25;;;4.30;;
72422;SDS011;60413;55.658;37.498;2022-08-18T08:40:06;14.93;;;4.88;;
72422;SDS011;60413;55.658;37.498;2022-08-18T08:43:02;14.55;;;4.25;;
72422;SDS011;60413;55.658;37.498;2022-08-18T08:45:56;9.32;;;4.30;;
72422;SDS011;60413;55.658;37.498;2022-08-18T08:51:59;12.30;;;3.80;;
72422;SDS011;60413;55.658;37.498;2022-08-18T08:54:39;10.25;;;3.67;;
72422;SDS011;60413;55.658;37.498;2022-08-18T08:57:33;7.13;;;3.83;;
72422;SDS011;60413;55.658;37.498;2022-08-18T09:00:11;10.48;;;3.95;;
72422;SDS011;60413;55.658;37.498;2022-08-18T09:08:40;8.68;;;3.72;;
72422;SDS011;60413;55.658;37.498;2022-08-18T09:21:58;9.30;;;3.50;;
72422;SDS011;60413;55.658;37.498;2022-08-18T09:24:51;7.35;;;2.78;;
72422;SDS011;60413;55.658;37.498;2022-08-18T09:29:58;10.90;;;2.70;;
72422;SDS011;60413;55.658;37.498;2022-08-18T09:35:11;5.63;;;2.90;;
72422;SDS011;60413;55.658;37.498;2022-08-18T09:37:59;7.60;;;2.75;;
72422;SDS011;60413;55.658;37.498;2022-08-18T09:41:13;5.28;;;2.38;;
72422;SDS011;60413;55.658;37.498;2022-08-18T09:59:56;7.03;;;2.63;;
72422;SDS011;60413;55.658;37.498;2022-08-18T10:07:45;8.80;;;2.35;;
72422;SDS011;60413;55.658;37.498;2022-08-18T10:10:42;4.07;;;1.65;;
72422;SDS011;60413;55.658;37.498;2022-08-18T10:14:17;6.70;;;2.88;;
72422;SDS011;60413;55.658;37.498;2022-08-18T10:24:42;4.88;;;2.90;;
72422;SDS011;60413;55.658;37.498;2022-08-18T10:33:01;6.68;;;1.98;;
72422;SDS011;60413;55.658;37.498;2022-08-18T10:38:05;6.32;;;2.70;;
72422;SDS011;60413;55.658;37.498;2022-08-18T10:41:03;6.63;;;2.63;;
72422;SDS011;60413;55.658;37.498;2022-08-18T10:43:41;4.23;;;2.33;;
72422;SDS011;60413;55.658;37.498;2022-08-18T10:46:23;5.90;;;2.40;;
72422;SDS011;60413;55.658;37.498;2022-08-18T10:51:52;5.30;;;3.15;;
72422;SDS011;60413;55.658;37.498;2022-08-18T10:57:23;4.88;;;2.00;;
72422;SDS011;60413;55.658;37.498;2022-08-18T11:00:03;5.28;;;2.13;;
72422;SDS011;60413;55.658;37.498;2022-08-18T11:05:39;6.82;;;1.92;;
72422;SDS011;60413;55.658;37.498;2022-08-18T11:08:17;4.40;;;2.03;;
72422;SDS011;60413;55.658;37.498;2022-08-18T11:10:50;6.13;;;1.63;;
72422;SDS011;60413;55.658;37.498;2022-08-18T11:13:25;5.18;;;2.20;;
72422;SDS011;60413;55.658;37.498;2022-08-18T11:16:07;5.57;;;1.55;;
72422;SDS011;60413;55.658;37.498;2022-08-18T11:18:57;3.33;;;1.50;;
72422;SDS011;60413;55.658;37.498;2022-08-18T11:21:40;3.42;;;2.03;;
72422;SDS011;60413;55.658;37.498;2022-08-18T11:24:24;3.30;;;1.63;;
72422;SDS011;60413;55.658;37.498;2022-08-18T11:26:59;7.32;;;1.80;;
72422;SDS011;60413;55.658;37.498;2022-08-18T11:29:37;4.60;;;1.98;;
72422;SDS011;60413;55.658;37.498;2022-08-18T11:32:26;8.50;;;2.13;;
72422;SDS011;60413;55.658;37.498;2022-08-18T11:35:14;5.57;;;1.80;;
72422;SDS011;60413;55.658;37.498;2022-08-18T11:38:19;5.97;;;2.25;;
72422;SDS011;60413;55.658;37.498;2022-08-18T11:40:48;3.70;;;1.77;;
72422;SDS011;60413;55.658;37.498;2022-08-18T11:43:35;6.95;;;2.05;;
72422;SDS011;60413;55.658;37.498;2022-08-18T11:48:55;4.00;;;1.92;;
72422;SDS011;60413;55.658;37.498;2022-08-18T11:51:33;9.52;;;1.77;;
72422;SDS011;60413;55.658;37.498;2022-08-18T11:56:48;5.97;;;1.40;;
72422;SDS011;60413;55.658;37.498;2022-08-18T12:02:08;4.47;;;1.45;;
72422;SDS011;60413;55.658;37.498;2022-08-18T12:04:47;5.20;;;1.65;;
72422;SDS011;60413;55.658;37.498;2022-08-18T12:07:32;4.15;;;1.35;;
72422;SDS011;60413;55.658;37.498;2022-08-18T12:10:13;2.70;;;1.83;;
72422;SDS011;60413;55.658;37.498;2022-08-18T12:12:49;5.53;;;1.80;;
72422;SDS011;60413;55.658;37.498;2022-08-18T12:15:25;4.38;;;1.95;;
72422;SDS011;60413;55.658;37.498;2022-08-18T12:17:59;3.88;;;1.38;;
72422;SDS011;60413;55.658;37.498;2022-08-18T12:20:25;3.15;;;1.80;;
72422;SDS011;60413;55.658;37.498;2022-08-18T12:23:00;4.40;;;1.88;;
72422;SDS011;60413;55.658;37.498;2022-08-18T12:25:43;4.30;;;1.45;;
72422;SDS011;60413;55.658;37.498;2022-08-18T12:28:15;4.40;;;1.52;;
72422;SDS011;60413;55.658;37.498;2022-08-18T12:30:50;8.05;;;1.70;;
72422;SDS011;60413;55.658;37.498;2022-08-18T12:33:26;6.07;;;1.40;;
72422;SDS011;60413;55.658;37.498;2022-08-18T12:36:00;5.50;;;1.45;;
72422;SDS011;60413;55.658;37.498;2022-08-18T12:38:41;7.47;;;1.60;;
72422;SDS011;60413;55.658;37.498;2022-08-18T12:41:14;3.20;;;1.45;;
72422;SDS011;60413;55.658;37.498;2022-08-18T12:43:44;4.93;;;1.50;;
72422;SDS011;60413;55.658;37.498;2022-08-18T12:46:20;3.63;;;1.33;;
72422;SDS011;60413;55.658;37.498;2022-08-18T12:48:49;3.00;;;1.15;;
72422;SDS011;60413;55.658;37.498;2022-08-18T12:51:15;3.30;;;1.55;;
72422;SDS011;60413;55.658;37.498;2022-08-18T12:53:53;4.93;;;1.65;;
72422;SDS011;60413;55.658;37.498;2022-08-18T12:56:26;4.72;;;1.20;;
72422;SDS011;60413;55.658;37.498;2022-08-18T12:59:05;3.88;;;1.30;;
72422;SDS011;60413;55.658;37.498;2022-08-18T13:01:33;4.97;;;1.58;;
72422;SDS011;60413;55.658;37.498;2022-08-18T13:04:01;4.97;;;1.55;;
72422;SDS011;60413;55.658;37.498;2022-08-18T13:06:31;3.58;;;1.70;;
72422;SDS011;60413;55.658;37.498;2022-08-18T13:09:04;3.88;;;1.50;;
72422;SDS011;60413;55.658;37.498;2022-08-18T13:11:36;3.95;;;1.60;;
72422;SDS011;60413;55.658;37.498;2022-08-18T13:14:07;8.60;;;1.77;;
72422;SDS011;60413;55.658;37.498;2022-08-18T13:16:34;4.97;;;1.40;;
72422;SDS011;60413;55.658;37.498;2022-08-18T13:19:06;7.13;;;1.50;;
72422;SDS011;60413;55.658;37.498;2022-08-18T13:21:33;4.28;;;1.77;;
72422;SDS011;60413;55.658;37.498;2022-08-18T13:24:02;5.28;;;1.67;;
72422;SDS011;60413;55.658;37.498;2022-08-18T13:26:33;4.68;;;1.52;;
72422;SDS011;60413;55.658;37.498;2022-08-18T13:29:15;4.18;;;1.55;;
72422;SDS011;60413;55.658;37.498;2022-08-18T13:31:42;3.85;;;1.40;;
72422;SDS011;60413;55.658;37.498;2022-08-18T13:36:42;9.35;;;2.22;;
72422;SDS011;60413;55.658;37.498;2022-08-18T13:39:13;4.30;;;2.05;;
72422;SDS011;60413;55.658;37.498;2022-08-18T13:41:45;6.93;;;2.00;;
72422;SDS011;60413;55.658;37.498;2022-08-18T13:44:17;4.32;;;1.90;;
72422;SDS011;60413;55.658;37.498;2022-08-18T13:46:44;9.65;;;1.77;;
72422;SDS011;60413;55.658;37.498;2022-08-18T13:49:18;6.05;;;1.73;;
72422;SDS011;60413;55.658;37.498;2022-08-18T13:51:46;4.88;;;1.83;;
72422;SDS011;60413;55.658;37.498;2022-08-18T13:54:22;5.03;;;1.95;;
72422;SDS011;60413;55.658;37.498;2022-08-18T13:56:52;9.98;;;2.30;;
72422;SDS011;60413;55.658;37.498;2022-08-18T13:59:28;4.93;;;2.03;;
72422;SDS011;60413;55.658;37.498;2022-08-18T14:01:58;9.10;;;2.08;;
72422;SDS011;60413;55.658;37.498;2022-08-18T14:04:26;5.97;;;2.10;;
72422;SDS011;60413;55.658;37.498;2022-08-18T14:06:55;6.13;;;1.85;;
72422;SDS011;60413;55.658;37.498;2022-08-18T14:09:28;7.43;;;1.50;;
72422;SDS011;60413;55.658;37.498;2022-08-18T14:12:08;4.80;;;1.70;;
72422;SDS011;60413;55.658;37.498;2022-08-18T14:14:42;9.02;;;1.80;;
72422;SDS011;60413;55.658;37.498;2022-08-18T14:17:09;5.90;;;1.80;;
72422;SDS011;60413;55.658;37.498;2022-08-18T14:19:35;3.30;;;1.60;;
72422;SDS011;60413;55.658;37.498;2022-08-18T14:22:31;2.35;;;1.40;;
72422;SDS011;60413;55.658;37.498;2022-08-18T14:25:27;4.68;;;1.80;;
72422;SDS011;60413;55.658;37.498;2022-08-18T14:28:13;3.42;;;1.95;;
72422;SDS011;60413;55.658;37.498;2022-08-18T14:30:55;4.55;;;1.90;;
72422;SDS011;60413;55.658;37.498;2022-08-18T14:33:31;5.90;;;2.60;;
72422;SDS011;60413;55.658;37.498;2022-08-18T14:36:04;3.47;;;1.70;;
72422;SDS011;60413;55.658;37.498;2022-08-18T14:38:32;4.32;;;1.95;;
72422;SDS011;60413;55.658;37.498;2022-08-18T14:41:01;5.25;;;1.60;;
72422;SDS011;60413;55.658;37.498;2022-08-18T14:43:37;5.85;;;2.30;;
72422;SDS011;60413;55.658;37.498;2022-08-18T14:46:12;7.00;;;2.45;;
72422;SDS011;60413;55.658;37.498;2022-08-18T14:48:38;13.10;;;2.90;;
72422;SDS011;60413;55.658;37.498;2022-08-18T14:51:09;4.72;;;2.08;;
72422;SDS011;60413;55.658;37.498;2022-08-18T14:53:43;3.45;;;2.13;;
72422;SDS011;60413;55.658;37.498;2022-08-18T14:56:18;7.47;;;2.60;;
72422;SDS011;60413;55.658;37.498;2022-08-18T14:58:44;4.28;;;1.83;;
72422;SDS011;60413;55.658;37.498;2022-08-18T15:01:12;6.35;;;1.95;;
72422;SDS011;60413;55.658;37.498;2022-08-18T15:03:39;4.22;;;2.30;;
72422;SDS011;60413;55.658;37.498;2022-08-18T15:06:16;7.43;;;2.78;;
72422;SDS011;60413;55.658;37.498;2022-08-18T15:09:05;11.35;;;3.20;;
72422;SDS011;60413;55.658;37.498;2022-08-18T15:11:34;5.18;;;2.58;;
72422;SDS011;60413;55.658;37.498;2022-08-18T15:14:32;6.88;;;2.70;;
72422;SDS011;60413;55.658;37.498;2022-08-18T15:17:03;6.25;;;2.38;;
72422;SDS011;60413;55.658;37.498;2022-08-18T15:19:33;10.10;;;2.38;;
72422;SDS011;60413;55.658;37.498;2022-08-18T15:25:07;8.75;;;2.90;;
72422;SDS011;60413;55.658;37.498;2022-08-18T15:27:56;4.35;;;2.13;;
72422;SDS011;60413;55.658;37.498;2022-08-18T15:30:30;7.88;;;2.40;;
72422;SDS011;60413;55.658;37.498;2022-08-18T15:33:27;10.90;;;2.22;;
72422;SDS011;60413;55.658;37.498;2022-08-18T15:35:53;6.72;;;2.10;;
72422;SDS011;60413;55.658;37.498;2022-08-18T15:38:25;6.28;;;2.40;;
72422;SDS011;60413;55.658;37.498;2022-08-18T15:40:59;7.63;;;2.28;;
72422;SDS011;60413;55.658;37.498;2022-08-18T15:43:30;6.65;;;2.30;;
72422;SDS011;60413;55.658;37.498;2022-08-18T15:46:03;4.10;;;2.25;;
72422;SDS011;60413;55.658;37.498;2022-08-18T15:48:30;5.55;;;2.30;;
72422;SDS011;60413;55.658;37.498;2022-08-18T15:51:15;5.10;;;2.53;;
72422;SDS011;60413;55.658;37.498;2022-08-18T15:53:42;6.95;;;2.35;;
72422;SDS011;60413;55.658;37.498;2022-08-18T15:56:19;6.45;;;2.30;;
72422;SDS011;60413;55.658;37.498;2022-08-18T15:58:50;6.68;;;2.65;;
72422;SDS011;60413;55.658;37.498;2022-08-18T16:01:21;6.63;;;2.38;;
72422;SDS011;60413;55.658;37.498;2022-08-18T16:03:56;6.55;;;2.63;;
72422;SDS011;60413;55.658;37.498;2022-08-18T16:06:27;11.70;;;2.65;;
72422;SDS011;60413;55.658;37.498;2022-08-18T16:09:23;8.77;;;2.53;;
72422;SDS011;60413;55.658;37.498;2022-08-18T16:11:52;9.70;;;2.75;;
72422;SDS011;60413;55.658;37.498;2022-08-18T16:14:21;8.45;;;2.30;;
72422;SDS011;60413;55.658;37.498;2022-08-18T16:16:50;9.07;;;2.50;;
72422;SDS011;60413;55.658;37.498;2022-08-18T16:19:17;6.78;;;2.25;;
72422;SDS011;60413;55.658;37.498;2022-08-18T16:21:45;5.95;;;2.22;;
72422;SDS011;60413;55.658;37.498;2022-08-18T16:24:15;16.50;;;2.80;;
72422;SDS011;60413;55.658;37.498;2022-08-18T16:26:42;9.25;;;2.55;;
72422;SDS011;60413;55.658;37.498;2022-08-18T16:29:08;4.40;;;2.00;;
72422;SDS011;60413;55.658;37.498;2022-08-18T16:31:34;4.72;;;1.90;;
72422;SDS011;60413;55.658;37.498;2022-08-18T16:34:01;6.95;;;2.20;;
72422;SDS011;60413;55.658;37.498;2022-08-18T16:36:27;9.55;;;3.10;;
72422;SDS011;60413;55.658;37.498;2022-08-18T16:38:54;9.45;;;2.78;;
72422;SDS011;60413;55.658;37.498;2022-08-18T16:41:20;12.32;;;2.60;;
72422;SDS011;60413;55.658;37.498;2022-08-18T16:43:50;6.03;;;2.08;;
72422;SDS011;60413;55.658;37.498;2022-08-18T16:46:19;7.25;;;2.40;;
72422;SDS011;60413;55.658;37.498;2022-08-18T16:48:51;15.75;;;2.45;;
72422;SDS011;60413;55.658;37.498;2022-08-18T16:51:19;11.45;;;2.78;;
72422;SDS011;60413;55.658;37.498;2022-08-18T16:53:48;7.97;;;2.63;;
72422;SDS011;60413;55.658;37.498;2022-08-18T16:56:21;7.97;;;2.50;;
72422;SDS011;60413;55.658;37.498;2022-08-18T16:58:52;3.72;;;1.90;;
72422;SDS011;60413;55.658;37.498;2022-08-18T17:01:37;9.32;;;2.88;;
72422;SDS011;60413;55.658;37.498;2022-08-18T17:04:26;4.85;;;2.30;;
72422;SDS011;60413;55.658;37.498;2022-08-18T17:06:54;6.28;;;2.63;;
72422;SDS011;60413;55.658;37.498;2022-08-18T17:09:22;8.60;;;2.92;;
72422;SDS011;60413;55.658;37.498;2022-08-18T17:11:49;4.57;;;2.72;;
72422;SDS011;60413;55.658;37.498;2022-08-18T17:14:18;8.52;;;3.00;;
72422;SDS011;60413;55.658;37.498;2022-08-18T17:16:47;7.93;;;3.10;;
72422;SDS011;60413;55.658;37.498;2022-08-18T17:19:18;7.28;;;2.53;;
72422;SDS011;60413;55.658;37.498;2022-08-18T17:21:46;8.23;;;2.70;;
72422;SDS011;60413;55.658;37.498;2022-08-18T17:27:33;10.30;;;3.15;;
72422;SDS011;60413;55.658;37.498;2022-08-18T17:30:18;8.52;;;3.08;;
72422;SDS011;60413;55.658;37.498;2022-08-18T17:33:09;8.93;;;2.65;;
72422;SDS011;60413;55.658;37.498;2022-08-18T17:35:43;7.00;;;3.05;;
72422;SDS011;60413;55.658;37.498;2022-08-18T17:41:09;10.48;;;3.45;;
72422;SDS011;60413;55.658;37.498;2022-08-18T17:43:37;9.40;;;3.08;;
72422;SDS011;60413;55.658;37.498;2022-08-18T17:46:27;11.10;;;3.20;;
72422;SDS011;60413;55.658;37.498;2022-08-18T17:49:02;7.50;;;2.83;;
72422;SDS011;60413;55.658;37.498;2022-08-18T17:51:34;6.80;;;2.63;;
72422;SDS011;60413;55.658;37.498;2022-08-18T17:56:45;6.78;;;2.78;;
72422;SDS011;60413;55.658;37.498;2022-08-18T17:59:27;11.90;;;3.22;;
72422;SDS011;60413;55.658;37.498;2022-08-18T18:02:15;5.90;;;2.58;;